| time (UTC) | temp F | wind direction | speed knots | gust knots | rain 1hr in | rain 24hr in | rain mn in | humidity % | barometer mb |
| 20260903043103 | 79 | 0 | 0.9 | 2.6 | 0.00 | 0.01 | 0.00 | 82 | 1014.1 |
| 20260903041559 | 79 | 263 | 1.7 | 5.2 | 0.00 | 0.01 | 0.00 | 81 | 1014.1 |
| 20260903040106 | 79 | 265 | 1.7 | 5.2 | 0.00 | 0.01 | 0.00 | 81 | 1014.0 |
| 20260903034606 | 79 | 221 | 0.9 | 2.6 | 0.00 | 0.01 | 0.01 | 81 | 1013.8 |
| 20260903033123 | 80 | 227 | 0.9 | 2.6 | 0.00 | 0.01 | 0.01 | 80 | 1013.7 |
| 20260903031635 | 80 | 0 | 0.9 | 5.2 | 0.00 | 0.01 | 0.01 | 80 | 1013.7 |
| 20260903030107 | 81 | 270 | 1.7 | 5.2 | 0.00 | 0.01 | 0.01 | 79 | 1013.6 |
| 20260903024603 | 81 | 0 | 0.9 | 4.3 | 0.00 | 0.01 | 0.01 | 79 | 1013.5 |
| 20260903023108 | 81 | 267 | 0.0 | 3.5 | 0.00 | 0.01 | 0.01 | 78 | 1013.8 |
| 20260903021557 | 82 | 266 | 0.0 | 5.2 | 0.00 | 0.01 | 0.01 | 78 | 1014.0 |
| 20260903020105 | 82 | 177 | 0.0 | 5.2 | 0.00 | 0.01 | 0.01 | 78 | 1014.2 |
| 20260903014557 | 82 | 252 | 0.0 | 4.3 | 0.00 | 0.01 | 0.01 | 77 | 1014.1 |
| 20260903013101 | 83 | 0 | 0.0 | 3.5 | 0.00 | 0.01 | 0.01 | 77 | 1014.1 |
| 20260903011606 | 83 | 253 | 0.0 | 2.6 | 0.00 | 0.01 | 0.01 | 76 | 1013.9 |
| 20260903010104 | 84 | 254 | 0.0 | 2.6 | 0.00 | 0.01 | 0.01 | 75 | 1013.8 |
| 20260903004603 | 84 | 242 | 0.0 | 3.5 | 0.00 | 0.01 | 0.01 | 75 | 1013.6 |
| 20260903003101 | 85 | 0 | 0.0 | 2.6 | 0.00 | 0.01 | 0.01 | 74 | 1013.3 |
| 20260903001606 | 86 | 190 | 0.9 | 2.6 | 0.00 | 0.01 | 0.01 | 72 | 1013.3 |
| 20260902234607 | 88 | 201 | 0.0 | 3.5 | 0.00 | 0.01 | 0.01 | 68 | 1013.6 |
| 20260902233108 | 89 | 263 | 0.9 | 6.1 | 0.00 | 0.01 | 0.01 | 67 | 1013.6 |
| 20260902231606 | 90 | 217 | 0.9 | 3.5 | 0.00 | 0.01 | 0.01 | 65 | 1013.6 |
| 20260902230103 | 90 | 309 | 2.6 | 7.0 | 0.00 | 0.01 | 0.01 | 64 | 1013.6 |
| 20260902224608 | 91 | 170 | 1.7 | 7.0 | 0.00 | 0.01 | 0.01 | 63 | 1013.4 |
| 20260902223100 | 91 | 255 | 1.7 | 8.7 | 0.00 | 0.01 | 0.01 | 61 | 1013.5 |
| 20260902221555 | 92 | 153 | 1.7 | 5.2 | 0.00 | 0.01 | 0.01 | 59 | 1013.7 |
| 20260902220106 | 92 | 268 | 1.7 | 7.8 | 0.00 | 0.01 | 0.01 | 58 | 1013.6 |
| 20260902214601 | 92 | 165 | 2.6 | 12.2 | 0.00 | 0.02 | 0.01 | 57 | 1013.6 |
| 20260902213106 | 92 | 264 | 3.5 | 13.9 | 0.00 | 0.02 | 0.01 | 53 | 1013.7 |
| 20260902211606 | 92 | 262 | 3.5 | 9.6 | 0.00 | 0.02 | 0.01 | 52 | 1013.8 |
| 20260902210103 | 92 | 255 | 2.6 | 11.3 | 0.00 | 0.02 | 0.01 | 53 | 1013.8 |
| 20260902204603 | 91 | 282 | 5.2 | 10.4 | 0.00 | 0.02 | 0.01 | 53 | 1013.9 |
| 20260902203127 | 92 | 263 | 5.2 | 13.0 | 0.00 | 0.02 | 0.01 | 52 | 1014.1 |
| 20260902201613 | 91 | 250 | 6.1 | 10.4 | 0.00 | 0.02 | 0.01 | 54 | 1014.2 |
| 20260902200112 | 92 | 299 | 4.3 | 12.2 | 0.00 | 0.02 | 0.01 | 52 | 1014.4 |
| 20260902194601 | 92 | 269 | 7.0 | 12.2 | 0.00 | 0.02 | 0.01 | 52 | 1014.5 |
| 20260902193105 | 90 | 303 | 4.3 | 10.4 | 0.00 | 0.02 | 0.01 | 58 | 1014.7 |
| 20260902191605 | 89 | 268 | 2.6 | 7.8 | 0.00 | 0.02 | 0.01 | 61 | 1015.0 |
| 20260902190107 | 90 | 285 | 2.6 | 7.8 | 0.00 | 0.02 | 0.01 | 59 | 1015.0 |
| 20260902184604 | 91 | 281 | 3.5 | 10.4 | 0.00 | 0.02 | 0.01 | 58 | 1015.0 |
| 20260902183125 | 91 | 307 | 4.3 | 15.6 | 0.00 | 0.02 | 0.01 | 58 | 1015.3 |
| 20260902181607 | 91 | 257 | 3.5 | 11.3 | 0.00 | 0.02 | 0.01 | 57 | 1015.6 |
| 20260902180108 | 90 | 274 | 4.3 | 13.0 | 0.00 | 0.02 | 0.01 | 59 | 1015.6 |
| 20260902174608 | 90 | 284 | 6.1 | 13.0 | 0.00 | 0.02 | 0.01 | 58 | 1015.8 |
| 20260902173102 | 91 | 265 | 2.6 | 7.8 | 0.00 | 0.02 | 0.01 | 63 | 1015.8 |
| 20260902171604 | 90 | 302 | 2.6 | 10.4 | 0.00 | 0.02 | 0.01 | 65 | 1015.8 |
| 20260902170055 | 89 | 280 | 2.6 | 7.8 | 0.00 | 0.02 | 0.01 | 66 | 1015.9 |
| 20260902164606 | 88 | 257 | 5.2 | 9.6 | 0.00 | 0.02 | 0.01 | 65 | 1016.1 |
| 20260902163128 | 87 | 198 | 4.3 | 8.7 | 0.00 | 0.02 | 0.01 | 66 | 1016.3 |
| 20260902161608 | 87 | 310 | 3.5 | 10.4 | 0.00 | 0.02 | 0.01 | 68 | 1016.5 |
| 20260902160050 | 86 | 313 | 4.3 | 8.7 | 0.00 | 0.02 | 0.01 | 68 | 1016.4 |
| 20260902154603 | 86 | 263 | 4.3 | 8.7 | 0.00 | 0.02 | 0.01 | 70 | 1016.6 |
| 20260902153107 | 85 | 249 | 3.5 | 8.7 | 0.00 | 0.02 | 0.01 | 73 | 1016.6 |
| 20260902151607 | 84 | 235 | 2.6 | 6.1 | 0.00 | 0.02 | 0.01 | 75 | 1016.5 |
| 20260902144603 | 81 | 267 | 1.7 | 7.0 | 0.00 | 0.02 | 0.01 | 78 | 1016.4 |
| 20260902143106 | 81 | 271 | 1.7 | 5.2 | 0.00 | 0.02 | 0.01 | 80 | 1016.2 |
| 20260902141609 | 80 | 287 | 1.7 | 6.1 | 0.00 | 0.02 | 0.01 | 81 | 1016.2 |
| 20260902140107 | 79 | 268 | 2.6 | 7.0 | 0.00 | 0.02 | 0.01 | 82 | 1016.1 |
| 20260902134601 | 78 | 283 | 2.6 | 7.8 | 0.00 | 0.02 | 0.01 | 83 | 1016.0 |
| 20260902133110 | 77 | 244 | 2.6 | 7.0 | 0.00 | 0.02 | 0.01 | 83 | 1016.0 |
| 20260902131611 | 76 | 278 | 2.6 | 7.0 | 0.00 | 0.02 | 0.01 | 84 | 1016.2 |
| 20260902130105 | 75 | 243 | 1.7 | 7.0 | 0.00 | 0.02 | 0.01 | 85 | 1016.0 |
| 20260902124602 | 74 | 287 | 2.6 | 6.1 | 0.00 | 0.02 | 0.01 | 86 | 1016.0 |
| 20260902123115 | 73 | 251 | 0.9 | 5.2 | 0.00 | 0.02 | 0.01 | 87 | 1016.0 |
| 20260902121558 | 73 | 269 | 1.7 | 3.5 | 0.00 | 0.02 | 0.01 | 87 | 1016.0 |
| 20260902120112 | 73 | 263 | 0.9 | 2.6 | 0.00 | 0.02 | 0.01 | 86 | 1016.1 |
| 20260902114559 | 72 | 0 | 0.0 | 3.5 | 0.00 | 0.02 | 0.01 | 86 | 1016.0 |
| 20260902113055 | 72 | 0 | 0.0 | 1.7 | 0.00 | 0.02 | 0.01 | 86 | 1016.0 |
| 20260902111607 | 72 | 0 | 0.0 | 1.7 | 0.00 | 0.02 | 0.01 | 86 | 1016.1 |
| 20260902104557 | 73 | 0 | 0.0 | 1.7 | 0.00 | 0.02 | 0.01 | 86 | 1016.0 |
| 20260902103055 | 73 | 252 | 0.9 | 1.7 | 0.00 | 0.02 | 0.01 | 86 | 1016.1 |
| 20260902101559 | 73 | 0 | 0.0 | 2.6 | 0.01 | 0.02 | 0.01 | 86 | 1016.0 |
| 20260902100106 | 74 | 0 | 0.0 | 2.6 | 0.01 | 0.02 | 0.01 | 86 | 1016.0 |
| 20260902094557 | 74 | 254 | 0.9 | 3.5 | 0.01 | 0.02 | 0.01 | 86 | 1015.9 |
| 20260902093055 | 74 | 254 | 0.0 | 2.6 | 0.01 | 0.02 | 0.01 | 86 | 1015.9 |
| 20260902091609 | 74 | 0 | 0.0 | 1.7 | 0.00 | 0.01 | 0.00 | 85 | 1015.6 |
| 20260902084552 | 74 | 259 | 0.9 | 3.5 | 0.00 | 0.01 | 0.00 | 86 | 1015.6 |
| 20260902083136 | 75 | 0 | 0.9 | 4.3 | 0.00 | 0.01 | 0.00 | 86 | 1015.6 |
| 20260902081559 | 75 | 261 | 0.0 | 1.7 | 0.00 | 0.01 | 0.00 | 86 | 1015.5 |
| 20260902080105 | 75 | 261 | 0.0 | 2.6 | 0.00 | 0.01 | 0.00 | 86 | 1015.5 |
| 20260902074613 | 75 | 263 | 0.0 | 5.2 | 0.00 | 0.01 | 0.00 | 86 | 1015.6 |
| 20260902073108 | 74 | 0 | 0.9 | 2.6 | 0.00 | 0.01 | 0.00 | 86 | 1015.5 |
| 20260902071607 | 74 | 0 | 0.9 | 1.7 | 0.00 | 0.01 | 0.00 | 86 | 1015.5 |
| 20260902070056 | 73 | 0 | 0.0 | 0.9 | 0.00 | 0.01 | 0.00 | 85 | 1015.3 |
| 20260902064603 | 73 | 0 | 0.0 | 0.9 | 0.00 | 0.01 | 0.00 | 85 | 1015.3 |
| 20260902063104 | 73 | 0 | 0.0 | 0.9 | 0.00 | 0.01 | 0.00 | 85 | 1015.3 |
| 20260902061603 | 72 | 0 | 0.0 | 0.9 | 0.00 | 0.01 | 0.00 | 85 | 1015.4 |
| 20260902060120 | 72 | 0 | 0.0 | 0.0 | 0.00 | 0.01 | 0.00 | 84 | 1015.6 |
| 20260902054551 | 71 | 0 | 0.0 | 0.0 | 0.00 | 0.01 | 0.00 | 84 | 1015.8 |
| 20260902053110 | 72 | 0 | 0.0 | 0.9 | 0.00 | 0.01 | 0.00 | 84 | 1015.8 |
| 20260902051600 | 72 | 0 | 0.0 | 0.9 | 0.00 | 0.01 | 0.00 | 84 | 1015.6 |
| 20260902044604 | 72 | 0 | 0.0 | 0.9 | 0.00 | 0.01 | 0.00 | 84 | 1015.6 |